createdAt,value
2019-01-19T06:44:09.651Z,10.30
2019-01-19T06:46:47.259Z,11.77
2019-01-19T06:52:14.312Z,11.77
2019-01-19T08:59:36.224Z,6.50
2019-01-19T09:02:10.522Z,7.53
2019-01-19T09:04:43.332Z,7.53
2019-01-19T09:07:15.153Z,7.03
2019-01-19T09:09:47.362Z,6.50
2019-01-19T09:12:31.950Z,7.37
2019-01-19T09:15:38.854Z,7.20
2019-01-19T09:18:18.451Z,6.80
2019-01-19T09:21:06.991Z,7.80
2019-01-19T09:23:53.407Z,7.00
2019-01-19T09:26:27.415Z,7.20
2019-01-19T09:28:58.947Z,7.40
2019-01-19T09:31:29.552Z,6.63
2019-01-19T09:34:00.762Z,6.43
2019-01-19T09:36:32.402Z,6.77
2019-01-19T09:39:03.073Z,6.50
2019-01-19T09:41:33.694Z,6.50
2019-01-19T09:44:04.485Z,7.97
2019-01-19T09:46:35.497Z,7.23
2019-01-19T09:49:06.637Z,6.77
2019-01-19T09:51:37.383Z,7.50
2019-01-19T09:54:08.510Z,6.97
2019-01-19T09:56:39.461Z,7.00
2019-01-19T09:59:11.142Z,7.57
2019-01-19T10:01:42.502Z,6.97
2019-01-19T10:04:20.267Z,7.53
2019-01-19T10:06:52.653Z,7.80
2019-01-19T10:09:24.020Z,7.40
2019-01-19T10:11:55.529Z,7.20
2019-01-19T10:14:26.396Z,7.47
2019-01-19T10:16:58.005Z,7.40
2019-01-19T10:19:28.737Z,8.07
2019-01-19T10:21:59.431Z,7.80
2019-01-19T10:24:32.529Z,8.60
2019-01-19T10:27:06.907Z,8.83
2019-01-19T10:29:46.974Z,8.47
2019-01-19T10:32:24.786Z,8.50
2019-01-19T10:34:59.833Z,8.10
2019-01-19T10:37:31.923Z,6.70
2019-01-19T10:40:03.247Z,7.10
2019-01-19T10:42:34.342Z,8.20
2019-01-19T10:45:06.122Z,8.43
2019-01-19T10:47:37.302Z,8.27
2019-01-19T10:50:15.452Z,8.83
2019-01-19T10:52:54.327Z,9.63
2019-01-19T11:04:49.196Z,9.17
2019-01-19T11:07:20.487Z,8.17
2019-01-19T11:09:50.942Z,10.27
2019-01-19T11:12:21.659Z,10.13
2019-01-19T11:14:52.014Z,11.13
2019-01-19T11:17:22.485Z,10.57
2019-01-19T11:19:54.659Z,9.57
2019-01-19T11:22:25.306Z,9.40
2019-01-19T11:24:55.748Z,8.83
2019-01-19T11:27:26.042Z,9.43
2019-01-19T11:29:56.804Z,10.37
2019-01-19T11:32:27.451Z,11.57
2019-01-19T11:34:57.980Z,10.17
2019-01-19T11:37:28.346Z,8.67
2019-01-19T11:39:59.052Z,9.43
2019-01-19T11:42:30.068Z,9.23
2019-01-19T11:45:00.467Z,8.60
2019-01-19T11:47:31.057Z,8.90
2019-01-19T11:50:01.370Z,7.37
2019-01-19T11:52:46.404Z,8.27
2019-01-19T11:55:19.461Z,4.83
2019-01-19T11:57:56.065Z,9.50
2019-01-19T12:00:30.073Z,8.93
2019-01-19T12:03:01.351Z,8.77
2019-01-19T12:05:32.012Z,9.07
2019-01-19T12:08:02.653Z,9.43
2019-01-19T12:10:33.503Z,9.60
2019-01-19T12:13:04.461Z,9.90
2019-01-19T12:15:35.142Z,10.10
2019-01-19T12:18:05.987Z,9.30
2019-01-19T12:20:41.571Z,9.70
2019-01-19T12:23:15.183Z,9.57
2019-01-19T12:25:47.225Z,10.07
2019-01-19T12:28:19.524Z,8.73
2019-01-19T12:30:53.371Z,8.80
2019-01-19T12:33:29.860Z,7.07
2019-01-19T12:36:00.833Z,8.03
2019-01-19T12:38:31.376Z,9.30
2019-01-19T12:41:02.273Z,8.23
2019-01-19T12:43:34.020Z,7.97
2019-01-19T12:46:08.372Z,8.23
2019-01-19T12:48:39.613Z,8.27
2019-01-19T12:51:15.716Z,7.90
2019-01-19T12:53:46.766Z,8.33
2019-01-19T12:56:18.461Z,8.43
2019-01-19T12:58:49.633Z,7.57
2019-01-19T13:01:20.764Z,8.30
2019-01-19T13:03:51.742Z,7.57
2019-01-19T13:07:03.952Z,8.97
2019-01-19T13:09:45.260Z,7.67
2019-01-19T13:13:02.334Z,8.50
2019-01-19T13:17:53.967Z,9.77
2019-01-19T13:22:43.999Z,7.87
2019-01-19T13:25:48.985Z,8.40
2019-01-19T13:40:41.147Z,10.93
2019-01-19T13:45:48.119Z,7.23
2019-01-19T13:49:03.765Z,11.13
2019-01-19T13:51:46.666Z,11.50
2019-01-19T13:56:43.616Z,10.20
2019-01-19T13:59:31.098Z,9.70
2019-01-19T14:04:27.276Z,9.80
2019-01-19T14:07:36.594Z,9.47
2019-01-19T14:10:20.743Z,10.57
2019-01-19T14:13:12.603Z,9.90
2019-01-19T14:16:32.447Z,10.30
2019-01-19T14:21:20.162Z,10.73
2019-01-19T14:25:27.653Z,9.10
2019-01-19T14:32:17.610Z,11.07
2019-01-19T14:35:08.931Z,10.47
2019-01-19T14:38:03.255Z,10.67
2019-01-19T14:42:21.072Z,10.97
2019-01-19T14:45:10.107Z,10.63
2019-01-19T14:48:31.915Z,10.67
2019-01-19T14:52:26.273Z,11.03
2019-01-19T14:55:35.616Z,11.70
2019-01-19T14:58:32.964Z,12.33
2019-01-19T15:03:30.325Z,13.70
2019-01-19T15:06:14.644Z,11.57
2019-01-19T15:13:09.913Z,12.50
2019-01-19T15:16:26.942Z,12.00
2019-01-19T15:21:31.480Z,8.87
2019-01-19T15:24:49.555Z,12.93
2019-01-19T15:32:58.718Z,10.97
2019-01-19T15:38:20.457Z,12.13
2019-01-19T15:41:22.316Z,11.57
2019-01-19T15:44:13.311Z,11.70
2019-01-19T15:47:03.144Z,13.17
2019-01-19T15:49:58.753Z,14.63
2019-01-19T15:52:42.866Z,10.80
2019-01-19T15:56:04.350Z,13.43
2019-01-19T16:01:12.025Z,11.80
2019-01-19T16:04:27.729Z,12.77
2019-01-19T16:08:25.754Z,15.30
2019-01-19T16:11:12.595Z,14.40
2019-01-19T16:16:07.422Z,16.07
2019-01-19T16:23:00.101Z,14.67
2019-01-19T16:25:55.326Z,16.67
2019-01-19T16:33:01.323Z,14.37
2019-01-19T16:35:53.779Z,14.70
2019-01-19T16:38:56.922Z,13.93
2019-01-19T16:41:47.401Z,14.90
2019-01-19T16:44:36.453Z,13.90
2019-01-19T16:47:32.007Z,11.90
2019-01-19T16:51:09.998Z,13.67
2019-01-19T16:54:47.175Z,13.43
2019-01-19T16:57:48.272Z,6.70
2019-01-19T17:00:52.640Z,13.70
2019-01-19T17:03:39.716Z,15.03
2019-01-19T17:06:32.385Z,16.03
2019-01-19T17:09:25.399Z,11.77
2019-01-19T17:12:26.855Z,11.30
2019-01-19T17:16:49.246Z,7.80
2019-01-19T17:19:53.414Z,13.63
2019-01-19T17:22:47.220Z,11.13
2019-01-19T17:26:37.659Z,10.27
2019-01-19T17:52:26.603Z,13.03
2019-01-19T17:56:19.686Z,13.53
2019-01-19T18:03:29.051Z,13.87
2019-01-19T18:06:19.471Z,13.63
2019-01-19T18:09:37.905Z,14.57
2019-01-19T18:12:46.002Z,13.30
2019-01-19T18:15:30.754Z,14.87
2019-01-19T18:18:33.977Z,8.23
2019-01-19T18:25:32.343Z,11.63
2019-01-19T18:28:20.456Z,10.47
2019-01-19T18:31:14.753Z,15.13
2019-01-19T18:36:05.031Z,16.33
2019-01-19T18:38:53.549Z,9.37
2019-01-19T18:41:51.209Z,15.67
2019-01-19T18:44:48.078Z,12.70
2019-01-19T18:49:13.167Z,9.63
2019-01-19T18:52:11.344Z,14.73
2019-01-19T18:55:09.128Z,17.10
2019-01-19T18:58:10.080Z,5.53
2019-01-19T19:02:13.340Z,16.67
2019-01-19T19:05:07.316Z,12.60
2019-01-19T19:10:25.526Z,12.77
2019-01-19T19:13:07.135Z,11.77
2019-01-19T19:18:01.707Z,16.63
2019-01-19T19:21:11.251Z,13.80
2019-01-19T19:24:00.721Z,13.50
2019-01-19T19:27:01.447Z,11.27
2019-01-19T19:32:01.231Z,18.10
2019-01-19T19:34:50.645Z,14.73
2019-01-19T19:38:08.824Z,18.53
2019-01-19T19:43:34.590Z,12.77
2019-01-19T19:46:29.543Z,12.23
2019-01-19T19:51:18.258Z,11.00
2019-01-19T19:53:50.120Z,17.47
2019-01-19T19:56:18.984Z,17.40
2019-01-19T19:58:50.060Z,20.27
2019-01-19T20:01:23.374Z,14.10
2019-01-19T20:03:54.401Z,18.50
2019-01-19T20:06:25.848Z,10.70
2019-01-19T20:08:56.793Z,17.80
2019-01-19T20:11:29.044Z,15.47
2019-01-19T20:14:00.335Z,13.10
2019-01-19T20:16:31.760Z,18.17
2019-01-19T20:19:02.852Z,15.40
2019-01-19T20:21:38.010Z,8.33
2019-01-19T20:24:08.878Z,15.43
2019-01-19T20:26:42.774Z,15.53
2019-01-19T20:29:13.609Z,11.03
2019-01-19T20:31:46.627Z,17.93
2019-01-19T20:34:17.548Z,11.47
2019-01-19T20:36:48.647Z,12.73
2019-01-19T20:39:19.945Z,18.33
2019-01-19T20:41:51.104Z,13.03
2019-01-19T20:44:25.252Z,17.17
2019-01-19T20:46:56.078Z,15.73
2019-01-19T20:49:27.313Z,16.13
2019-01-19T20:51:59.326Z,18.23
2019-01-19T20:54:30.509Z,10.10
2019-01-19T20:57:03.380Z,9.73
2019-01-19T20:59:34.347Z,18.40
2019-01-19T21:02:08.879Z,11.27
2019-01-19T21:04:40.213Z,12.50
2019-01-19T21:07:10.984Z,18.70
2019-01-19T21:09:42.003Z,14.47
2019-01-19T21:12:12.972Z,19.03
2019-01-19T21:14:44.799Z,17.17
2019-01-19T21:17:16.569Z,18.17
2019-01-19T21:19:52.929Z,17.83
2019-01-19T21:35:26.639Z,17.70
2019-01-19T21:37:58.646Z,19.23
2019-01-19T21:40:39.012Z,13.77
2019-01-19T21:43:21.006Z,20.07
2019-01-19T21:45:53.199Z,17.47
2019-01-19T21:48:29.470Z,16.93
2019-01-19T21:51:26.927Z,18.50
2019-01-19T21:59:13.750Z,18.27
2019-01-19T23:44:05.215Z,9.53
2019-01-19T23:46:35.248Z,9.63
2019-01-19T23:49:05.422Z,9.17
2019-01-19T23:51:36.171Z,9.63
2019-01-19T23:54:06.690Z,7.57
2019-01-19T23:56:36.775Z,8.13
2019-01-19T23:59:07.186Z,7.63
